Allerton, Illinois
Current Conditions -  °F | °C
As of 9:53 AM on Wednesday 22 Oct 2014 (Local Time) from KCMI Reporting Station
Clear Clear  
Wind Chill: 45°   Ceiling: Unl
Heat Index: 49°   Visibility: 10mi
Dew Point: 39°   Wind: 8mph
Humidity: 69%   Direction: 90°E
Pressure: 30.35"   Gusts: NA
Location:  39.91°N, 87.94°W
Report Text: KCMI 221453Z 09007KT 10SM CLR 09/04 A3035 RMK AO2 SLP282 T00940039 51015 $
Loading
Personal Weather Stations






























Interactive Weather Map
Tropical Storm Tracking
New forecast layout! Learn more

10-Day Weather Forecast

Advertisements
Track Severe Weather on mobile